createdAt,value
2023-03-08T00:00:08.639Z,0
2023-03-08T00:02:34.755Z,0
2023-03-08T00:04:59.842Z,0
2023-03-08T00:07:25.950Z,0
2023-03-08T00:09:52.032Z,0
2023-03-08T00:12:18.144Z,0
2023-03-08T00:14:44.284Z,0
2023-03-08T00:17:10.333Z,0
2023-03-08T00:19:36.423Z,0
2023-03-08T00:22:04.412Z,0
2023-03-08T00:24:28.668Z,0
2023-03-08T00:26:54.703Z,0
2023-03-08T00:29:20.919Z,0
2023-03-08T00:31:46.970Z,0
2023-03-08T00:34:13.009Z,0
2023-03-08T00:36:38.261Z,0
2023-03-08T00:39:04.222Z,0
2023-03-08T00:41:30.311Z,0
2023-03-08T00:43:56.408Z,0
2023-03-08T00:46:22.497Z,0
2023-03-08T00:48:48.587Z,0
2023-03-08T00:51:14.747Z,0
2023-03-08T00:53:40.792Z,0
2023-03-08T00:56:06.897Z,0
2023-03-08T00:58:33.074Z,0
2023-03-08T01:00:59.067Z,0
2023-03-08T01:03:25.163Z,0
2023-03-08T01:05:51.280Z,0
2023-03-08T01:08:16.385Z,0
2023-03-08T01:10:42.466Z,0
2023-03-08T01:13:08.568Z,0
2023-03-08T01:15:34.674Z,0
2023-03-08T01:18:00.759Z,0
2023-03-08T01:20:26.875Z,0
2023-03-08T01:22:52.952Z,0
2023-03-08T01:25:19.040Z,0
2023-03-08T01:27:45.140Z,0
2023-03-08T01:30:11.383Z,0
2023-03-08T01:32:37.335Z,0
2023-03-08T01:35:03.426Z,0
2023-03-08T01:37:29.549Z,0
2023-03-08T01:39:54.627Z,0
2023-03-08T01:42:20.735Z,0
2023-03-08T01:44:46.825Z,0
2023-03-08T01:47:12.925Z,0
2023-03-08T01:49:39.005Z,0
2023-03-08T01:52:05.118Z,0
2023-03-08T01:54:31.230Z,0
2023-03-08T01:56:57.383Z,0
2023-03-08T01:59:23.436Z,0
2023-03-08T02:01:49.495Z,0
2023-03-08T02:04:15.585Z,0
2023-03-08T02:06:41.678Z,0
2023-03-08T02:09:07.769Z,0
2023-03-08T02:11:32.905Z,0
2023-03-08T02:13:58.990Z,0
2023-03-08T02:16:25.087Z,0
2023-03-08T02:18:51.173Z,0
2023-03-08T02:21:17.335Z,0
2023-03-08T02:23:43.386Z,0
2023-03-08T02:26:09.492Z,0
2023-03-08T02:28:35.580Z,0
2023-03-08T02:31:01.674Z,0
2023-03-08T02:33:27.780Z,0
2023-03-08T02:35:53.856Z,0
2023-03-08T02:38:19.940Z,0
2023-03-08T02:40:46.088Z,0
2023-03-08T02:43:11.168Z,0
2023-03-08T02:45:37.255Z,0
2023-03-08T02:48:03.361Z,0
2023-03-08T02:50:29.443Z,0
2023-03-08T02:52:55.556Z,0
2023-03-08T02:55:21.654Z,0
2023-03-08T02:57:46.765Z,0
2023-03-08T03:00:12.870Z,0
2023-03-08T03:02:38.949Z,0
2023-03-08T03:05:05.059Z,0
2023-03-08T03:07:31.165Z,0
2023-03-08T03:09:57.277Z,0
2023-03-08T03:12:23.421Z,0
2023-03-08T03:14:49.444Z,0
2023-03-08T03:17:15.558Z,0
2023-03-08T03:19:41.640Z,0
2023-03-08T03:22:07.776Z,0
2023-03-08T03:24:33.830Z,0
2023-03-08T03:26:59.929Z,0
2023-03-08T03:29:25.070Z,0
2023-03-08T03:31:51.136Z,0
2023-03-08T03:34:17.207Z,0
2023-03-08T03:36:43.315Z,0
2023-03-08T03:39:09.403Z,0
2023-03-08T03:44:01.597Z,0
2023-03-08T03:46:27.702Z,0
2023-03-08T03:48:53.805Z,0
2023-03-08T03:51:19.885Z,0
2023-03-08T03:53:45.996Z,0
2023-03-08T03:56:12.092Z,0
2023-03-08T03:58:38.201Z,0
2023-03-08T04:01:03.285Z,0
2023-03-08T04:03:29.385Z,0
2023-03-08T04:05:55.489Z,0
2023-03-08T04:08:21.619Z,0
2023-03-08T04:10:47.685Z,0
2023-03-08T04:13:13.774Z,0
2023-03-08T04:15:39.886Z,0
2023-03-08T04:18:05.993Z,0
2023-03-08T04:20:32.072Z,0
2023-03-08T04:22:58.170Z,0
2023-03-08T04:25:24.253Z,0
2023-03-08T04:27:50.365Z,0
2023-03-08T04:30:16.448Z,0
2023-03-08T04:32:41.577Z,0
2023-03-08T04:35:07.669Z,0
2023-03-08T04:37:33.748Z,0
2023-03-08T04:39:59.862Z,0
2023-03-08T04:42:25.959Z,0
2023-03-08T04:44:52.062Z,0
2023-03-08T04:47:18.151Z,0
2023-03-08T04:49:44.241Z,0
2023-03-08T04:52:10.346Z,0
2023-03-08T04:54:36.435Z,0
2023-03-08T04:57:02.524Z,0
2023-03-08T04:59:28.614Z,0
2023-03-08T05:01:54.723Z,0
2023-03-08T05:04:19.867Z,0
2023-03-08T05:06:45.932Z,0
2023-03-08T05:09:12.030Z,0
2023-03-08T05:11:38.122Z,0
2023-03-08T05:14:04.206Z,0
2023-03-08T05:16:30.333Z,0
2023-03-08T05:18:56.421Z,0
2023-03-08T05:21:22.512Z,0
2023-03-08T05:23:48.733Z,0
2023-03-08T05:26:14.745Z,0
2023-03-08T05:28:40.813Z,0
2023-03-08T05:31:06.915Z,0
2023-03-08T05:33:33.000Z,0
2023-03-08T05:35:58.112Z,0
2023-03-08T05:38:24.211Z,0
2023-03-08T05:40:50.296Z,0
2023-03-08T05:43:16.403Z,0
2023-03-08T05:45:42.497Z,0
2023-03-08T05:48:08.647Z,0
2023-03-08T05:50:34.701Z,0
2023-03-08T05:53:00.779Z,0
2023-03-08T05:55:26.887Z,0
2023-03-08T05:58:15.739Z,0
2023-03-08T06:00:19.068Z,5
2023-03-08T06:02:45.249Z,5
2023-03-08T06:05:11.272Z,5
2023-03-08T06:07:36.365Z,5
2023-03-08T06:10:02.467Z,5
2023-03-08T06:12:28.568Z,11
2023-03-08T06:14:54.661Z,11
2023-03-08T06:19:46.847Z,16
2023-03-08T06:22:13.010Z,11
2023-03-08T06:24:39.045Z,11
2023-03-08T06:27:05.132Z,11
2023-03-08T06:29:31.247Z,16
2023-03-08T06:31:57.337Z,16
2023-03-08T06:34:23.431Z,16
2023-03-08T06:36:49.612Z,22
2023-03-08T06:39:14.648Z,22
2023-03-08T06:41:40.741Z,28
2023-03-08T06:44:06.842Z,33
2023-03-08T06:46:32.931Z,33
2023-03-08T06:48:59.098Z,39
2023-03-08T06:51:25.250Z,39
2023-03-08T06:53:51.241Z,50
2023-03-08T06:56:17.319Z,61
2023-03-08T06:58:43.428Z,73
2023-03-08T07:01:09.526Z,73
2023-03-08T07:03:35.685Z,73
2023-03-08T07:06:01.706Z,67
2023-03-08T07:08:27.809Z,73
2023-03-08T07:10:52.968Z,73
2023-03-08T07:13:19.022Z,78
2023-03-08T07:15:45.101Z,78
2023-03-08T07:18:11.214Z,90
2023-03-08T07:20:37.305Z,78
2023-03-08T07:23:03.394Z,73
2023-03-08T07:25:29.507Z,78
2023-03-08T07:27:55.638Z,78
2023-03-08T07:30:21.681Z,78
2023-03-08T07:32:47.783Z,101
2023-03-08T07:35:13.866Z,101
2023-03-08T07:37:39.953Z,90
2023-03-08T07:40:06.069Z,90
2023-03-08T07:42:31.177Z,95
2023-03-08T07:44:57.279Z,84
2023-03-08T07:47:23.369Z,90
2023-03-08T07:49:49.487Z,90
2023-03-08T07:52:15.720Z,84
2023-03-08T07:54:41.754Z,84
2023-03-08T07:57:07.812Z,78
2023-03-08T07:59:33.984Z,73
2023-03-08T08:02:00.181Z,73
2023-03-08T08:04:26.066Z,84
2023-03-08T08:06:52.203Z,90
2023-03-08T08:09:18.237Z,78
2023-03-08T08:11:44.438Z,78
2023-03-08T08:14:09.473Z,90
2023-03-08T08:16:35.553Z,118
2023-03-08T08:19:01.633Z,140
2023-03-08T08:21:27.709Z,140
2023-03-08T08:23:53.889Z,174
2023-03-08T08:26:20.117Z,174
2023-03-08T08:28:46.058Z,146
2023-03-08T08:31:12.169Z,140
2023-03-08T08:33:38.401Z,112
2023-03-08T08:36:04.353Z,101
2023-03-08T08:38:30.536Z,90
2023-03-08T08:40:56.655Z,73
2023-03-08T08:43:22.602Z,90
2023-03-08T08:45:47.720Z,135
2023-03-08T08:48:13.816Z,140
2023-03-08T08:50:40.189Z,151
2023-03-08T08:53:06.042Z,185
2023-03-08T08:55:32.072Z,180
2023-03-08T08:57:58.214Z,196
2023-03-08T09:00:24.268Z,236
2023-03-08T09:02:50.363Z,213
2023-03-08T09:05:16.457Z,151
2023-03-08T09:07:42.716Z,157
2023-03-08T09:10:08.863Z,163
2023-03-08T09:12:34.898Z,185
2023-03-08T09:15:00.949Z,163
2023-03-08T09:17:26.049Z,191
2023-03-08T09:19:52.293Z,168
2023-03-08T09:22:18.144Z,185
2023-03-08T09:24:44.311Z,151
2023-03-08T09:27:10.395Z,180
2023-03-08T09:29:36.422Z,180
2023-03-08T09:32:02.528Z,163
2023-03-08T09:34:28.733Z,151
2023-03-08T09:36:54.724Z,151
2023-03-08T09:39:20.931Z,140
2023-03-08T09:41:46.992Z,174
2023-03-08T09:44:13.108Z,208
2023-03-08T09:46:39.113Z,146
2023-03-08T09:49:04.333Z,202
2023-03-08T09:51:30.514Z,208
2023-03-08T09:53:56.582Z,129
2023-03-08T09:56:22.539Z,168
2023-03-08T09:58:48.719Z,163
2023-03-08T10:01:14.731Z,180
2023-03-08T10:03:40.814Z,129
2023-03-08T10:06:06.900Z,157
2023-03-08T10:08:33.061Z,180
2023-03-08T10:10:59.060Z,230
2023-03-08T10:13:25.167Z,151
2023-03-08T10:15:51.280Z,168
2023-03-08T10:18:17.377Z,225
2023-03-08T10:20:42.484Z,236
2023-03-08T10:23:08.639Z,202
2023-03-08T10:25:34.690Z,271
2023-03-08T10:28:00.787Z,241
2023-03-08T10:30:26.875Z,219
2023-03-08T10:32:52.961Z,196
2023-03-08T10:35:19.130Z,202
2023-03-08T10:37:45.286Z,163
2023-03-08T10:40:11.268Z,168
2023-03-08T10:42:37.375Z,191
2023-03-08T10:45:03.477Z,157
2023-03-08T10:47:29.526Z,157
2023-03-08T10:49:55.699Z,219
2023-03-08T10:52:20.731Z,230
2023-03-08T10:54:47.012Z,247
2023-03-08T10:57:12.918Z,219
2023-03-08T10:59:39.028Z,259
2023-03-08T11:02:05.124Z,366
2023-03-08T11:04:31.253Z,383
2023-03-08T11:06:56.356Z,462
2023-03-08T11:09:22.446Z,434
2023-03-08T11:11:48.595Z,355
2023-03-08T11:14:14.874Z,484
2023-03-08T11:16:40.791Z,501
2023-03-08T11:19:07.020Z,456
2023-03-08T11:21:32.975Z,377
2023-03-08T11:23:59.222Z,361
2023-03-08T11:26:25.166Z,422
2023-03-08T11:28:51.315Z,282
2023-03-08T11:31:17.432Z,293
2023-03-08T11:33:43.418Z,241
2023-03-08T11:36:09.518Z,180
2023-03-08T11:38:34.687Z,259
2023-03-08T11:41:00.771Z,191
2023-03-08T11:43:26.813Z,225
2023-03-08T11:45:52.939Z,287
2023-03-08T11:48:19.019Z,202
2023-03-08T11:50:45.177Z,293
2023-03-08T11:53:11.165Z,299
2023-03-08T11:55:37.306Z,316
2023-03-08T11:58:03.348Z,253
2023-03-08T12:00:29.447Z,287
2023-03-08T12:02:55.542Z,225
2023-03-08T12:05:21.639Z,276
2023-03-08T12:07:47.922Z,282
2023-03-08T12:10:12.891Z,208
2023-03-08T12:12:38.979Z,225
2023-03-08T12:15:05.070Z,225
2023-03-08T12:17:31.199Z,157
2023-03-08T12:19:57.243Z,208
2023-03-08T12:22:23.328Z,168
2023-03-08T12:24:49.446Z,282
2023-03-08T12:27:15.603Z,355
2023-03-08T12:29:41.621Z,349
2023-03-08T12:32:07.719Z,338
2023-03-08T12:34:33.849Z,241
2023-03-08T12:37:00.037Z,259
2023-03-08T12:39:26.157Z,219
2023-03-08T12:41:51.155Z,202
2023-03-08T12:44:17.287Z,196
2023-03-08T12:46:43.323Z,219
2023-03-08T12:49:09.541Z,180
2023-03-08T12:51:35.584Z,180
2023-03-08T12:54:01.597Z,174
2023-03-08T12:56:27.688Z,180
2023-03-08T12:58:53.791Z,219
2023-03-08T13:01:19.875Z,208
2023-03-08T13:03:46.097Z,241
2023-03-08T13:06:12.066Z,310
2023-03-08T13:08:38.359Z,344
2023-03-08T13:11:04.328Z,202
2023-03-08T13:13:29.383Z,180
2023-03-08T13:15:55.472Z,225
2023-03-08T13:18:21.577Z,168
2023-03-08T13:20:47.641Z,196
2023-03-08T13:23:13.923Z,146
2023-03-08T13:25:39.989Z,135
2023-03-08T13:28:06.097Z,191
2023-03-08T13:30:32.093Z,180
2023-03-08T13:32:58.180Z,163
2023-03-08T13:35:24.242Z,146
2023-03-08T13:37:50.390Z,208
2023-03-08T13:40:16.556Z,213
2023-03-08T13:42:42.558Z,213
2023-03-08T13:45:07.735Z,241
2023-03-08T13:47:33.749Z,163
2023-03-08T13:52:25.927Z,247
2023-03-08T13:54:52.178Z,196
2023-03-08T13:57:18.280Z,259
2023-03-08T13:59:44.308Z,185
2023-03-08T14:02:10.384Z,225
2023-03-08T14:04:36.388Z,271
2023-03-08T14:07:02.469Z,287
2023-03-08T14:09:28.612Z,310
2023-03-08T14:11:54.716Z,287
2023-03-08T14:14:20.797Z,287
2023-03-08T14:16:45.896Z,287
2023-03-08T14:19:12.044Z,271
2023-03-08T14:21:38.070Z,253
2023-03-08T14:24:04.200Z,241
2023-03-08T14:26:30.280Z,174
2023-03-08T14:28:56.327Z,135
2023-03-08T14:31:22.455Z,106
2023-03-08T14:33:48.534Z,101
2023-03-08T14:36:14.730Z,84
2023-03-08T14:38:40.833Z,78
2023-03-08T14:41:06.838Z,95
2023-03-08T14:43:32.914Z,157
2023-03-08T14:45:59.033Z,101
2023-03-08T14:48:24.314Z,168
2023-03-08T14:50:50.217Z,236
2023-03-08T14:53:16.321Z,321
2023-03-08T14:55:42.422Z,321
2023-03-08T14:58:08.505Z,213
2023-03-08T15:00:34.599Z,241
2023-03-08T15:03:00.707Z,208
2023-03-08T15:05:26.805Z,332
2023-03-08T15:07:52.868Z,191
2023-03-08T15:10:18.977Z,129
2023-03-08T15:12:45.069Z,112
2023-03-08T15:15:11.154Z,112
2023-03-08T15:17:37.242Z,151
2023-03-08T15:20:03.385Z,146
2023-03-08T15:22:29.438Z,366
2023-03-08T15:24:55.542Z,321
2023-03-08T15:27:21.741Z,293
2023-03-08T15:29:46.816Z,293
2023-03-08T15:32:12.875Z,422
2023-03-08T15:34:38.952Z,344
2023-03-08T15:37:05.029Z,230
2023-03-08T15:39:31.150Z,265
2023-03-08T15:41:57.232Z,163
2023-03-08T15:44:23.325Z,123
2023-03-08T15:46:49.434Z,95
2023-03-08T15:49:15.520Z,95
2023-03-08T15:51:41.622Z,129
2023-03-08T15:54:07.702Z,123
2023-03-08T15:56:33.796Z,106
2023-03-08T15:59:00.025Z,90
2023-03-08T16:01:25.133Z,78
2023-03-08T16:03:51.120Z,78
2023-03-08T16:06:17.205Z,78
2023-03-08T16:11:09.469Z,112
2023-03-08T16:13:35.515Z,101
2023-03-08T16:16:01.639Z,78
2023-03-08T16:18:27.693Z,61
2023-03-08T16:20:53.778Z,67
2023-03-08T16:23:19.865Z,67
2023-03-08T16:25:45.954Z,56
2023-03-08T16:28:12.081Z,61
2023-03-08T16:30:38.163Z,33
2023-03-08T16:33:03.258Z,22
2023-03-08T16:35:29.387Z,22
2023-03-08T16:37:55.525Z,22
2023-03-08T16:40:21.719Z,16
2023-03-08T16:42:47.826Z,22
2023-03-08T16:45:13.912Z,11
2023-03-08T16:47:39.958Z,5
2023-03-08T16:50:05.998Z,11
2023-03-08T16:52:32.176Z,16
2023-03-08T16:54:58.221Z,11
2023-03-08T16:57:24.279Z,5
2023-03-08T16:59:50.323Z,5
2023-03-08T17:02:16.414Z,11
2023-03-08T17:04:41.515Z,5
2023-03-08T17:07:07.738Z,11
2023-03-08T17:09:33.804Z,5
2023-03-08T17:11:59.880Z,0
2023-03-08T17:14:25.894Z,0
2023-03-08T17:16:52.104Z,0
2023-03-08T17:19:18.138Z,0
2023-03-08T17:21:44.176Z,0
2023-03-08T17:24:10.268Z,0
2023-03-08T17:26:36.377Z,0
2023-03-08T17:29:02.496Z,0
2023-03-08T17:31:28.582Z,0
2023-03-08T17:33:54.687Z,0
2023-03-08T17:36:19.777Z,0
2023-03-08T17:38:45.864Z,0
2023-03-08T17:41:11.988Z,0
2023-03-08T17:43:38.134Z,0
2023-03-08T17:46:04.148Z,0
2023-03-08T17:48:30.251Z,0
2023-03-08T17:50:56.342Z,0
2023-03-08T17:53:22.443Z,0
2023-03-08T17:55:48.533Z,0
2023-03-08T17:58:14.643Z,0
2023-03-08T18:00:40.734Z,0
2023-03-08T18:03:06.828Z,0
2023-03-08T18:05:32.911Z,0
2023-03-08T18:07:58.037Z,0
2023-03-08T18:10:24.235Z,0
2023-03-08T18:12:50.221Z,0
2023-03-08T18:15:16.316Z,0
2023-03-08T18:17:42.405Z,0
2023-03-08T18:20:08.507Z,0
2023-03-08T18:22:34.596Z,0
2023-03-08T18:25:00.690Z,0
2023-03-08T18:27:26.811Z,0
2023-03-08T18:29:52.925Z,0
2023-03-08T18:32:18.981Z,0
2023-03-08T18:34:45.062Z,0
2023-03-08T18:37:11.151Z,0
2023-03-08T18:39:36.286Z,0
2023-03-08T18:42:02.393Z,0
2023-03-08T18:44:28.486Z,0
2023-03-08T18:46:54.632Z,0
2023-03-08T18:49:20.663Z,0
2023-03-08T18:51:46.765Z,0
2023-03-08T18:54:12.898Z,0
2023-03-08T18:56:38.939Z,0
2023-03-08T18:59:05.047Z,0
2023-03-08T19:01:31.137Z,0
2023-03-08T19:03:57.221Z,0
2023-03-08T19:08:49.460Z,0
2023-03-08T19:11:14.530Z,0
2023-03-08T19:13:40.656Z,0
2023-03-08T19:16:05.766Z,0
2023-03-08T19:18:31.849Z,0
2023-03-08T19:20:58.008Z,0
2023-03-08T19:23:24.094Z,0
2023-03-08T19:25:50.568Z,0
2023-03-08T19:28:16.273Z,0
2023-03-08T19:30:42.326Z,0
2023-03-08T19:33:08.415Z,0
2023-03-08T19:35:34.513Z,0
2023-03-08T19:38:00.601Z,0
2023-03-08T19:40:26.693Z,0
2023-03-08T19:42:52.797Z,0
2023-03-08T19:45:18.981Z,0
2023-03-08T19:47:44.009Z,0
2023-03-08T19:50:10.095Z,0
2023-03-08T19:52:36.185Z,0
2023-03-08T19:55:02.280Z,0
2023-03-08T19:57:28.391Z,0
2023-03-08T19:59:54.503Z,0
2023-03-08T20:02:20.579Z,0
2023-03-08T20:04:46.668Z,0
2023-03-08T20:07:12.758Z,0
2023-03-08T20:09:38.874Z,0
2023-03-08T20:12:05.132Z,0
2023-03-08T20:14:31.134Z,0
2023-03-08T20:16:57.299Z,0
2023-03-08T20:19:22.317Z,0
2023-03-08T20:21:48.547Z,0
2023-03-08T20:24:14.619Z,0
2023-03-08T20:26:40.590Z,0
2023-03-08T20:29:06.653Z,0
2023-03-08T20:31:32.772Z,0
2023-03-08T20:33:58.869Z,0
2023-03-08T20:36:24.997Z,0
2023-03-08T20:38:51.085Z,0
2023-03-08T20:41:17.107Z,0
2023-03-08T20:43:43.219Z,0
2023-03-08T20:46:09.300Z,0
2023-03-08T20:48:35.400Z,0
2023-03-08T20:51:00.516Z,0
2023-03-08T20:53:26.649Z,0
2023-03-08T20:55:52.719Z,0
2023-03-08T21:00:44.959Z,0
2023-03-08T21:03:11.002Z,0
2023-03-08T21:05:37.108Z,0
2023-03-08T21:08:03.184Z,0
2023-03-08T21:10:29.290Z,0
2023-03-08T21:12:55.388Z,0
2023-03-08T21:15:21.470Z,0
2023-03-08T21:17:47.561Z,0
2023-03-08T21:20:13.675Z,0
2023-03-08T21:22:38.773Z,0
2023-03-08T21:25:04.857Z,0
2023-03-08T21:27:31.053Z,0
2023-03-08T21:29:57.121Z,0
2023-03-08T21:32:23.175Z,0
2023-03-08T21:34:49.348Z,0
2023-03-08T21:37:15.426Z,0
2023-03-08T21:39:41.581Z,0
2023-03-08T21:42:07.850Z,0
2023-03-08T21:44:33.647Z,0
2023-03-08T21:46:59.719Z,0
2023-03-08T21:49:25.865Z,0
2023-03-08T21:51:51.921Z,0
2023-03-08T21:54:17.019Z,0
2023-03-08T21:56:43.117Z,0
2023-03-08T21:59:09.230Z,0
2023-03-08T22:01:35.346Z,0
2023-03-08T22:04:01.402Z,0
2023-03-08T22:06:27.517Z,0
2023-03-08T22:08:53.595Z,0
2023-03-08T22:11:19.724Z,0
2023-03-08T22:13:45.772Z,0
2023-03-08T22:16:11.875Z,0
2023-03-08T22:18:37.975Z,0
2023-03-08T22:21:04.053Z,0
2023-03-08T22:23:30.157Z,0
2023-03-08T22:25:55.261Z,0
2023-03-08T22:28:21.366Z,0
2023-03-08T22:30:47.507Z,0
2023-03-08T22:33:13.545Z,0
2023-03-08T22:35:39.646Z,0
2023-03-08T22:38:05.745Z,0
2023-03-08T22:40:31.829Z,0
2023-03-08T22:42:57.935Z,0
2023-03-08T22:45:24.035Z,0
2023-03-08T22:47:50.111Z,0
2023-03-08T22:50:16.236Z,0
2023-03-08T22:52:42.309Z,0
2023-03-08T22:55:08.393Z,0
2023-03-08T22:57:33.517Z,0
2023-03-08T22:59:59.615Z,0
2023-03-08T23:02:25.797Z,0
2023-03-08T23:04:51.838Z,0
2023-03-08T23:07:17.928Z,0
2023-03-08T23:09:44.036Z,0
2023-03-08T23:12:10.115Z,0
2023-03-08T23:14:36.197Z,0
2023-03-08T23:17:02.299Z,0
2023-03-08T23:19:28.394Z,0
2023-03-08T23:21:54.455Z,0
2023-03-08T23:24:20.573Z,0
2023-03-08T23:26:46.659Z,0
2023-03-08T23:29:11.765Z,0
2023-03-08T23:31:37.866Z,0
2023-03-08T23:34:03.956Z,0
2023-03-08T23:36:30.075Z,0
2023-03-08T23:38:56.193Z,0
2023-03-08T23:41:22.239Z,0
2023-03-08T23:43:48.344Z,0
2023-03-08T23:46:14.435Z,0
2023-03-08T23:48:40.528Z,0
2023-03-08T23:51:06.627Z,0
2023-03-08T23:53:32.713Z,0
2023-03-08T23:55:58.827Z,0
2023-03-08T23:58:24.912Z,0
